Time;durP1;ratioP1;P1;durP2;ratioP2;P2;SDS_P1;SDS_P2;PMS_P1;PMS_P2;Temp;Humidity;BMP_temperature;BMP_pressure;BME280_temperature;BME280_humidity;BME280_pressure;Samples;Min_cycle;Max_cycle;Signal;HPM_P1;HPM_P2
2023/05/30 00:01:25;;;;;;;9.98;7.40;;;;;;;;;;5052333;28;20037;-74
2023/05/30 00:03:51;;;;;;;11.18;7.38;;;;;;;;;;5051731;28;20021;-74
2023/05/30 00:06:17;;;;;;;14.98;7.88;;;;;;;;;;5051745;28;20040;-75
2023/05/30 00:08:43;;;;;;;17.00;7.60;;;;;;;;;;5051762;28;20029;-74
2023/05/30 00:11:13;;;;;;;15.43;7.90;;;;;;;;;;5050658;28;20509;-74
2023/05/30 00:13:42;;;;;;;15.30;6.93;;;;;;;;;;5051731;28;20033;-74
2023/05/30 00:16:08;;;;;;;11.68;6.95;;;;;;;;;;5048745;28;20394;-74
2023/05/30 00:18:35;;;;;;;12.52;6.85;;;;;;;;;;5050340;28;20029;-73
2023/05/30 00:21:05;;;;;;;8.73;5.90;;;;;;;;;;5051323;28;20044;-75
2023/05/30 00:23:32;;;;;;;12.30;6.15;;;;;;;;;;5051887;28;20040;-73
2023/05/30 00:25:59;;;;;;;9.38;5.93;;;;;;;;;;5051994;28;20036;-74
2023/05/30 00:28:25;;;;;;;10.82;6.03;;;;;;;;;;5059211;28;20040;-74
2023/05/30 00:30:53;;;;;;;8.57;5.80;;;;;;;;;;5045820;28;20083;-74
2023/05/30 00:33:20;;;;;;;8.85;5.57;;;;;;;;;;5054073;28;20124;-74
2023/05/30 00:35:47;;;;;;;9.82;6.53;;;;;;;;;;5051410;28;20475;-74
2023/05/30 00:38:13;;;;;;;14.05;6.78;;;;;;;;;;5056303;28;20029;-74
2023/05/30 00:40:39;;;;;;;9.57;6.35;;;;;;;;;;5055317;28;20039;-73
2023/05/30 00:43:05;;;;;;;9.98;6.57;;;;;;;;;;5055204;28;20925;-73
2023/05/30 00:45:30;;;;;;;10.57;6.82;;;;;;;;;;5054505;28;20079;-74
2023/05/30 00:47:57;;;;;;;11.20;7.18;;;;;;;;;;5052295;28;20029;-74
2023/05/30 00:50:26;;;;;;;11.88;6.35;;;;;;;;;;5051622;28;20017;-74
2023/05/30 00:52:53;;;;;;;12.15;6.90;;;;;;;;;;5051245;28;20052;-74
2023/05/30 00:55:20;;;;;;;11.75;6.28;;;;;;;;;;5050730;28;20032;-74
2023/05/30 00:57:46;;;;;;;11.25;7.00;;;;;;;;;;5052349;28;20040;-74
2023/05/30 01:00:14;;;;;;;12.43;7.32;;;;;;;;;;5057202;28;20021;-74
2023/05/30 01:02:44;;;;;;;10.95;6.00;;;;;;;;;;5051022;28;20033;-73
2023/05/30 01:05:14;;;;;;;8.52;6.00;;;;;;;;;;5055284;28;20467;-74
2023/05/30 01:07:44;;;;;;;10.23;6.65;;;;;;;;;;5051712;28;20060;-73
2023/05/30 01:10:18;;;;;;;11.27;6.00;;;;;;;;;;5050983;28;20489;-73
2023/05/30 01:13:07;;;;;;;9.75;6.47;;;;;;;;;;5051049;28;20429;-73
2023/05/30 01:15:39;;;;;;;10.05;6.43;;;;;;;;;;5050297;28;20033;-74
2023/05/30 01:18:21;;;;;;;10.90;5.70;;;;;;;;;;5050889;28;20080;-74
2023/05/30 01:20:54;;;;;;;8.48;5.75;;;;;;;;;;5050742;28;20029;-73
2023/05/30 01:24:00;;;;;;;9.30;5.63;;;;;;;;;;5052238;28;20325;-74
2023/05/30 01:26:26;;;;;;;10.27;5.88;;;;;;;;;;5051740;28;20412;-74
2023/05/30 01:28:55;;;;;;;10.88;5.72;;;;;;;;;;5050647;28;20021;-73
2023/05/30 01:31:23;;;;;;;7.25;5.38;;;;;;;;;;5051849;28;20044;-74
2023/05/30 01:33:49;;;;;;;8.90;4.60;;;;;;;;;;5051623;28;20021;-74
2023/05/30 01:36:15;;;;;;;8.55;5.20;;;;;;;;;;5050210;28;20036;-75
2023/05/30 01:38:42;;;;;;;8.50;4.93;;;;;;;;;;5051170;28;20139;-75
2023/05/30 01:41:17;;;;;;;14.68;5.68;;;;;;;;;;5051057;28;20032;-74
2023/05/30 01:44:00;;;;;;;10.65;5.60;;;;;;;;;;5050508;28;20047;-73
2023/05/30 01:46:36;;;;;;;9.70;4.97;;;;;;;;;;5050690;28;20058;-73
2023/05/30 01:49:33;;;;;;;9.70;5.40;;;;;;;;;;5051164;28;20160;-74
2023/05/30 01:52:01;;;;;;;9.57;5.05;;;;;;;;;;5052812;28;20375;-74
2023/05/30 01:54:30;;;;;;;8.30;5.32;;;;;;;;;;5051124;28;20029;-74
2023/05/30 01:57:05;;;;;;;9.27;6.15;;;;;;;;;;5052517;28;20029;-74
2023/05/30 01:59:31;;;;;;;9.50;5.35;;;;;;;;;;5051000;28;20029;-74
2023/05/30 02:01:59;;;;;;;11.63;5.68;;;;;;;;;;5051157;28;20025;-74
2023/05/30 02:04:25;;;;;;;7.93;5.30;;;;;;;;;;5047102;28;20045;-74
2023/05/30 02:06:51;;;;;;;8.23;5.10;;;;;;;;;;5046368;28;20104;-74
2023/05/30 02:09:17;;;;;;;9.35;5.38;;;;;;;;;;5047440;28;20537;-75
2023/05/30 02:11:42;;;;;;;8.77;4.95;;;;;;;;;;5047890;28;20028;-75
2023/05/30 02:14:09;;;;;;;11.90;5.07;;;;;;;;;;5030466;28;20043;-75
2023/05/30 02:16:36;;;;;;;6.80;4.47;;;;;;;;;;5043643;28;20028;-75
2023/05/30 02:19:03;;;;;;;19.42;5.90;;;;;;;;;;5071784;28;20120;-72
2023/05/30 02:21:28;;;;;;;11.00;4.97;;;;;;;;;;5044668;28;20175;-74
2023/05/30 02:23:54;;;;;;;11.52;7.50;;;;;;;;;;5044720;28;20101;-73
2023/05/30 02:26:20;;;;;;;9.13;5.40;;;;;;;;;;5043282;28;20029;-75
2023/05/30 02:28:46;;;;;;;9.55;5.20;;;;;;;;;;5045838;28;20114;-74
2023/05/30 02:31:12;;;;;;;12.43;5.07;;;;;;;;;;5045710;28;20016;-75
2023/05/30 02:33:38;;;;;;;10.40;5.15;;;;;;;;;;5044467;28;20041;-74
2023/05/30 02:36:05;;;;;;;15.00;5.07;;;;;;;;;;5045879;28;20029;-73
2023/05/30 02:38:31;;;;;;;13.98;5.72;;;;;;;;;;5043559;28;20044;-74
2023/05/30 02:40:57;;;;;;;6.47;4.63;;;;;;;;;;5028046;28;20017;-75
2023/05/30 02:43:24;;;;;;;8.05;4.82;;;;;;;;;;5045208;28;20036;-73
2023/05/30 02:45:50;;;;;;;13.82;4.93;;;;;;;;;;5045067;28;20446;-73
2023/05/30 02:48:18;;;;;;;13.75;5.20;;;;;;;;;;5043123;28;20045;-73
2023/05/30 02:50:44;;;;;;;20.33;5.28;;;;;;;;;;5043337;28;20032;-72
2023/05/30 02:53:16;;;;;;;18.73;5.50;;;;;;;;;;5043837;28;20124;-73
2023/05/30 02:55:42;;;;;;;16.77;5.80;;;;;;;;;;5043740;28;20036;-73
2023/05/30 02:58:26;;;;;;;16.35;6.70;;;;;;;;;;5045205;28;20086;-73
2023/05/30 03:01:00;;;;;;;14.05;5.13;;;;;;;;;;5043470;28;20094;-73
2023/05/30 03:03:26;;;;;;;13.45;4.82;;;;;;;;;;5044089;28;20041;-74
2023/05/30 03:06:01;;;;;;;13.40;5.50;;;;;;;;;;5044080;28;20082;-73
2023/05/30 03:08:43;;;;;;;13.57;5.72;;;;;;;;;;5044682;28;20143;-72
2023/05/30 03:11:10;;;;;;;15.50;6.30;;;;;;;;;;5045561;28;20068;-72
2023/05/30 03:13:35;;;;;;;11.77;5.57;;;;;;;;;;5044806;28;20095;-73
2023/05/30 03:16:02;;;;;;;17.02;5.68;;;;;;;;;;5026736;28;20797;-72
2023/05/30 03:18:28;;;;;;;20.40;6.97;;;;;;;;;;5042785;28;20036;-72
2023/05/30 03:20:54;;;;;;;11.95;5.93;;;;;;;;;;5045849;28;20579;-72
2023/05/30 03:23:22;;;;;;;10.38;5.15;;;;;;;;;;5045300;28;20120;-73
2023/05/30 03:25:47;;;;;;;16.75;5.95;;;;;;;;;;5043641;28;20123;-72
2023/05/30 03:28:13;;;;;;;12.27;5.85;;;;;;;;;;5044423;28;20451;-72
2023/05/30 03:31:00;;;;;;;9.45;4.88;;;;;;;;;;5048020;28;20056;-73
2023/05/30 03:33:28;;;;;;;13.48;5.25;;;;;;;;;;5047362;28;20055;-73
2023/05/30 03:35:54;;;;;;;11.15;5.38;;;;;;;;;;5048605;28;20126;-73
2023/05/30 03:38:21;;;;;;;14.68;5.68;;;;;;;;;;5049653;28;20061;-72
2023/05/30 03:40:48;;;;;;;17.60;4.85;;;;;;;;;;5051495;28;20036;-72
2023/05/30 03:43:13;;;;;;;12.80;5.05;;;;;;;;;;5051928;28;20091;-72
2023/05/30 03:45:39;;;;;;;19.27;5.78;;;;;;;;;;5052586;28;20029;-72
2023/05/30 03:48:05;;;;;;;17.30;5.35;;;;;;;;;;5053404;28;20040;-73
2023/05/30 03:50:32;;;;;;;18.02;6.47;;;;;;;;;;5052853;28;20032;-73
2023/05/30 03:52:57;;;;;;;25.35;5.78;;;;;;;;;;5036774;28;20117;-73
2023/05/30 03:55:23;;;;;;;17.38;6.07;;;;;;;;;;5052888;28;20037;-73
2023/05/30 03:57:49;;;;;;;25.83;6.30;;;;;;;;;;5053090;28;20040;-73
2023/05/30 04:00:16;;;;;;;18.35;4.95;;;;;;;;;;5052404;28;20036;-73
2023/05/30 04:02:42;;;;;;;23.58;5.80;;;;;;;;;;5052793;28;20029;-73
2023/05/30 04:05:08;;;;;;;33.53;7.53;;;;;;;;;;5053490;28;20025;-73
2023/05/30 04:07:35;;;;;;;30.45;9.57;;;;;;;;;;5053404;28;20029;-73
2023/05/30 04:10:03;;;;;;;14.48;5.25;;;;;;;;;;5052550;28;20021;-73
2023/05/30 04:12:30;;;;;;;19.75;6.05;;;;;;;;;;5035957;28;20425;-73
2023/05/30 04:14:57;;;;;;;18.30;5.32;;;;;;;;;;5052048;28;20053;-72
2023/05/30 04:17:22;;;;;;;23.30;6.65;;;;;;;;;;5048061;28;20029;-73
2023/05/30 04:19:48;;;;;;;27.30;6.97;;;;;;;;;;5051198;28;20108;-74
2023/05/30 04:22:14;;;;;;;27.95;7.65;;;;;;;;;;5052114;28;20048;-73
2023/05/30 04:24:39;;;;;;;16.77;7.35;;;;;;;;;;5052750;28;20482;-72
2023/05/30 04:27:06;;;;;;;22.70;6.50;;;;;;;;;;5064516;28;20029;-73
2023/05/30 04:29:32;;;;;;;22.65;6.72;;;;;;;;;;5017003;28;20548;-73
2023/05/30 04:31:58;;;;;;;20.77;6.18;;;;;;;;;;5051864;28;20083;-74
2023/05/30 04:34:24;;;;;;;11.52;6.00;;;;;;;;;;5052028;28;20075;-74
2023/05/30 04:36:53;;;;;;;17.40;6.75;;;;;;;;;;5070401;28;20036;-73
2023/05/30 04:39:20;;;;;;;15.27;5.47;;;;;;;;;;5072285;28;20056;-73
2023/05/30 04:41:46;;;;;;;17.65;6.00;;;;;;;;;;5072761;28;20093;-74
2023/05/30 04:44:11;;;;;;;18.58;5.25;;;;;;;;;;5062076;28;20032;-72
2023/05/30 04:46:37;;;;;;;10.38;4.68;;;;;;;;;;5050735;28;20048;-72
2023/05/30 04:49:06;;;;;;;13.35;5.00;;;;;;;;;;5047947;28;20070;-73
2023/05/30 04:51:32;;;;;;;16.23;5.13;;;;;;;;;;5052513;28;20499;-72
2023/05/30 04:53:59;;;;;;;14.32;5.93;;;;;;;;;;5045444;28;20045;-72
2023/05/30 04:56:26;;;;;;;18.20;5.05;;;;;;;;;;5050255;28;20033;-72
2023/05/30 04:58:52;;;;;;;14.10;4.72;;;;;;;;;;5051656;28;20025;-73
2023/05/30 05:01:18;;;;;;;13.15;4.97;;;;;;;;;;5050080;28;20036;-72
2023/05/30 05:03:45;;;;;;;17.00;5.28;;;;;;;;;;5045294;28;20052;-72
2023/05/30 05:06:11;;;;;;;15.32;4.68;;;;;;;;;;5048305;28;20114;-73
2023/05/30 05:08:38;;;;;;;14.30;5.10;;;;;;;;;;5053231;28;20025;-72
2023/05/30 05:11:05;;;;;;;14.65;5.00;;;;;;;;;;5076793;28;20048;-72
2023/05/30 05:13:31;;;;;;;8.93;5.55;;;;;;;;;;5053570;28;20028;-72
2023/05/30 05:15:57;;;;;;;12.55;4.88;;;;;;;;;;5052994;28;20033;-72
2023/05/30 05:18:23;;;;;;;15.55;5.40;;;;;;;;;;5052875;28;20113;-72
2023/05/30 05:20:49;;;;;;;15.40;4.78;;;;;;;;;;5051199;28;20063;-73
2023/05/30 05:23:15;;;;;;;17.00;5.57;;;;;;;;;;5046489;28;20112;-74
2023/05/30 05:25:41;;;;;;;10.32;5.28;;;;;;;;;;5048566;28;20128;-74
2023/05/30 05:28:07;;;;;;;14.70;5.93;;;;;;;;;;5050484;28;20093;-73
2023/05/30 05:30:33;;;;;;;18.20;6.00;;;;;;;;;;5051616;28;20021;-73
2023/05/30 05:32:58;;;;;;;10.95;5.10;;;;;;;;;;5052080;28;20370;-73
2023/05/30 05:35:24;;;;;;;16.05;5.90;;;;;;;;;;5051632;28;20490;-74
2023/05/30 05:37:50;;;;;;;14.20;6.72;;;;;;;;;;5051462;28;20017;-72
2023/05/30 05:40:17;;;;;;;11.40;5.93;;;;;;;;;;5050046;28;20115;-72
2023/05/30 05:42:43;;;;;;;11.90;6.22;;;;;;;;;;5051603;28;20013;-72
2023/05/30 05:45:09;;;;;;;14.43;6.60;;;;;;;;;;5052451;28;20129;-72
2023/05/30 05:47:35;;;;;;;12.57;6.43;;;;;;;;;;5054399;28;20028;-74
2023/05/30 05:50:01;;;;;;;9.80;6.07;;;;;;;;;;5053481;28;20036;-74
2023/05/30 05:52:26;;;;;;;10.98;7.03;;;;;;;;;;5051647;28;20021;-73
2023/05/30 05:54:52;;;;;;;10.25;6.20;;;;;;;;;;5051614;28;20033;-72
2023/05/30 05:57:18;;;;;;;14.82;6.93;;;;;;;;;;5049945;28;20398;-72
2023/05/30 05:59:44;;;;;;;12.63;6.82;;;;;;;;;;5045256;28;20041;-71
2023/05/30 06:02:10;;;;;;;13.85;6.88;;;;;;;;;;5045309;28;20029;-73
2023/05/30 06:04:36;;;;;;;16.58;6.47;;;;;;;;;;5051554;28;20056;-72
2023/05/30 06:07:03;;;;;;;13.70;7.18;;;;;;;;;;5042371;28;20035;-72
2023/05/30 06:09:34;;;;;;;16.50;7.85;;;;;;;;;;5043064;28;20115;-71
2023/05/30 06:12:01;;;;;;;14.73;7.25;;;;;;;;;;5043966;28;20091;-73
2023/05/30 06:14:28;;;;;;;16.13;7.60;;;;;;;;;;5043984;28;20028;-71
2023/05/30 06:16:54;;;;;;;15.55;7.72;;;;;;;;;;5044250;28;20614;-71
2023/05/30 06:19:19;;;;;;;18.42;8.57;;;;;;;;;;5050357;28;20020;-72
2023/05/30 06:21:45;;;;;;;10.70;7.10;;;;;;;;;;5050475;28;20063;-72
2023/05/30 06:24:11;;;;;;;17.02;7.18;;;;;;;;;;5051889;28;20020;-72
2023/05/30 06:26:37;;;;;;;16.70;7.28;;;;;;;;;;5051535;28;20032;-72
2023/05/30 06:29:02;;;;;;;9.77;6.82;;;;;;;;;;5051438;28;20020;-72
2023/05/30 06:31:28;;;;;;;12.32;6.55;;;;;;;;;;5048841;28;20029;-72
2023/05/30 06:33:54;;;;;;;10.75;6.97;;;;;;;;;;5050425;28;20024;-72
2023/05/30 06:36:20;;;;;;;16.45;7.50;;;;;;;;;;5050451;28;20064;-72
2023/05/30 06:38:45;;;;;;;12.82;6.32;;;;;;;;;;5051653;28;20033;-74
2023/05/30 06:41:11;;;;;;;15.80;7.68;;;;;;;;;;5051673;28;20037;-73
2023/05/30 06:43:37;;;;;;;13.20;6.93;;;;;;;;;;5051215;28;20502;-73
2023/05/30 06:46:05;;;;;;;16.95;7.88;;;;;;;;;;5051256;28;20033;-73
2023/05/30 06:48:31;;;;;;;13.25;7.40;;;;;;;;;;5049867;28;20063;-73
2023/05/30 06:50:57;;;;;;;10.48;6.55;;;;;;;;;;5051077;28;20083;-73
2023/05/30 06:53:23;;;;;;;12.02;6.75;;;;;;;;;;5049415;28;20051;-72
2023/05/30 06:55:49;;;;;;;15.07;7.25;;;;;;;;;;5049653;28;20471;-73
2023/05/30 06:58:15;;;;;;;13.05;7.63;;;;;;;;;;5049749;28;20040;-73
2023/05/30 07:00:41;;;;;;;11.52;6.70;;;;;;;;;;5049305;28;20128;-73
2023/05/30 07:03:06;;;;;;;13.93;6.55;;;;;;;;;;5050759;28;20025;-72
2023/05/30 07:05:32;;;;;;;12.57;6.88;;;;;;;;;;5050480;28;20045;-72
2023/05/30 07:07:58;;;;;;;16.08;7.70;;;;;;;;;;5050739;28;20036;-72
2023/05/30 07:10:24;;;;;;;11.23;6.60;;;;;;;;;;5050887;28;20372;-73
2023/05/30 07:12:49;;;;;;;9.90;5.90;;;;;;;;;;5051260;28;20033;-72
2023/05/30 07:15:15;;;;;;;10.15;6.15;;;;;;;;;;5053023;28;20094;-73
2023/05/30 07:17:41;;;;;;;10.88;6.45;;;;;;;;;;5051366;28;20063;-76
2023/05/30 07:20:08;;;;;;;11.68;6.70;;;;;;;;;;5040979;28;20041;-74
2023/05/30 07:22:34;;;;;;;8.40;5.65;;;;;;;;;;5049841;28;20083;-76
2023/05/30 07:25:00;;;;;;;14.15;5.70;;;;;;;;;;5050176;28;20037;-73
2023/05/30 07:27:26;;;;;;;10.25;5.63;;;;;;;;;;5050054;28;20040;-72
2023/05/30 07:29:52;;;;;;;10.68;4.68;;;;;;;;;;5050514;28;20057;-73
2023/05/30 07:32:17;;;;;;;7.50;3.97;;;;;;;;;;5050434;28;20029;-73
2023/05/30 07:34:43;;;;;;;12.48;4.22;;;;;;;;;;5049689;28;20037;-75
2023/05/30 07:37:09;;;;;;;6.15;3.92;;;;;;;;;;5047956;28;20120;-74
2023/05/30 07:39:35;;;;;;;8.52;4.68;;;;;;;;;;5049754;28;20032;-73
2023/05/30 07:42:01;;;;;;;8.80;4.15;;;;;;;;;;5049364;28;20029;-73
2023/05/30 07:44:28;;;;;;;6.40;4.03;;;;;;;;;;5049446;28;20045;-75
2023/05/30 07:46:55;;;;;;;6.90;3.83;;;;;;;;;;5049660;28;20471;-73
2023/05/30 07:49:22;;;;;;;8.90;4.25;;;;;;;;;;5049504;28;20037;-73
2023/05/30 07:51:48;;;;;;;7.28;4.05;;;;;;;;;;5046855;28;20041;-71
2023/05/30 07:54:15;;;;;;;7.97;3.63;;;;;;;;;;5049482;28;20068;-73
2023/05/30 07:56:40;;;;;;;9.70;4.05;;;;;;;;;;5049156;28;20017;-73
2023/05/30 07:59:06;;;;;;;9.43;4.28;;;;;;;;;;5031922;28;20072;-74
2023/05/30 08:01:32;;;;;;;6.28;4.00;;;;;;;;;;5049207;28;20017;-74
2023/05/30 08:03:59;;;;;;;8.23;4.05;;;;;;;;;;5049096;28;20552;-74
2023/05/30 08:06:25;;;;;;;8.18;4.10;;;;;;;;;;5047676;28;20028;-73
2023/05/30 08:08:51;;;;;;;7.93;3.35;;;;;;;;;;5049271;28;20346;-75
2023/05/30 08:11:19;;;;;;;7.28;3.58;;;;;;;;;;5048257;28;20017;-73
2023/05/30 08:13:45;;;;;;;6.93;3.55;;;;;;;;;;5046188;28;20075;-73
2023/05/30 08:16:11;;;;;;;8.65;3.95;;;;;;;;;;5050203;28;20094;-73
2023/05/30 08:18:37;;;;;;;10.43;4.45;;;;;;;;;;5053238;28;20029;-73
2023/05/30 08:21:04;;;;;;;12.18;4.15;;;;;;;;;;5052838;28;20020;-73
2023/05/30 08:23:30;;;;;;;7.45;3.85;;;;;;;;;;5051732;28;20491;-74
2023/05/30 08:25:56;;;;;;;10.40;4.28;;;;;;;;;;5053207;28;20025;-71
2023/05/30 08:28:23;;;;;;;7.32;4.07;;;;;;;;;;5052839;28;20064;-73
2023/05/30 08:30:48;;;;;;;7.65;4.22;;;;;;;;;;5052733;28;20031;-72
2023/05/30 08:33:16;;;;;;;10.00;4.28;;;;;;;;;;5034725;28;20526;-72
2023/05/30 08:35:42;;;;;;;7.05;4.80;;;;;;;;;;5052372;28;20528;-72
2023/05/30 08:38:07;;;;;;;10.13;4.50;;;;;;;;;;5052994;28;20045;-72
2023/05/30 08:40:34;;;;;;;9.25;3.78;;;;;;;;;;5052396;28;20112;-71
2023/05/30 08:43:00;;;;;;;7.75;3.88;;;;;;;;;;5052360;28;20375;-71
2023/05/30 08:45:27;;;;;;;8.45;4.30;;;;;;;;;;5052837;28;20021;-72
2023/05/30 08:47:55;;;;;;;7.57;3.75;;;;;;;;;;5050366;28;20082;-73
2023/05/30 08:50:21;;;;;;;5.93;3.75;;;;;;;;;;5050903;28;20075;-73
2023/05/30 08:52:51;;;;;;;8.00;4.32;;;;;;;;;;5050275;28;20071;-72
2023/05/30 08:55:27;;;;;;;9.35;4.30;;;;;;;;;;5052692;28;20021;-73
2023/05/30 08:58:20;;;;;;;6.75;3.53;;;;;;;;;;5049030;28;20037;-74
2023/05/30 09:00:48;;;;;;;9.27;3.83;;;;;;;;;;5048692;28;20036;-73
2023/05/30 09:03:15;;;;;;;7.30;3.65;;;;;;;;;;5048563;28;20029;-74
2023/05/30 09:05:42;;;;;;;6.32;3.80;;;;;;;;;;5050051;28;20041;-72
2023/05/30 09:08:10;;;;;;;7.90;3.75;;;;;;;;;;5052265;28;20040;-72
2023/05/30 09:10:41;;;;;;;11.30;4.35;;;;;;;;;;5051083;28;20033;-74
2023/05/30 09:13:09;;;;;;;6.38;3.55;;;;;;;;;;5051429;28;20112;-73
2023/05/30 09:15:35;;;;;;;6.60;3.42;;;;;;;;;;5052169;28;20024;-73
2023/05/30 09:18:01;;;;;;;8.82;3.25;;;;;;;;;;5050824;28;20116;-73
2023/05/30 09:20:30;;;;;;;5.75;3.08;;;;;;;;;;5051949;28;20119;-71
2023/05/30 09:22:57;;;;;;;8.20;3.25;;;;;;;;;;5052590;28;20525;-73
2023/05/30 09:25:22;;;;;;;9.43;3.72;;;;;;;;;;5031114;28;20033;-73
2023/05/30 09:27:50;;;;;;;9.82;4.20;;;;;;;;;;5049491;28;20372;-72
2023/05/30 09:30:16;;;;;;;8.00;3.65;;;;;;;;;;5055314;28;20151;-75
2023/05/30 09:33:03;;;;;;;7.53;3.50;;;;;;;;;;5051762;28;20079;-73
2023/05/30 09:35:29;;;;;;;6.13;3.28;;;;;;;;;;5048805;28;20033;-72
2023/05/30 09:37:55;;;;;;;6.95;3.17;;;;;;;;;;5049985;28;20017;-74
2023/05/30 09:40:23;;;;;;;5.47;3.33;;;;;;;;;;5051239;28;20033;-72
2023/05/30 09:42:51;;;;;;;8.73;3.22;;;;;;;;;;5051344;28;20056;-73
2023/05/30 09:45:20;;;;;;;5.30;3.67;;;;;;;;;;5050657;28;20445;-72
2023/05/30 09:47:47;;;;;;;7.28;3.47;;;;;;;;;;5050772;28;20056;-73
2023/05/30 09:50:15;;;;;;;9.98;3.38;;;;;;;;;;5047841;28;20435;-74
2023/05/30 09:52:42;;;;;;;7.35;3.30;;;;;;;;;;5051036;28;20108;-71
2023/05/30 09:55:13;;;;;;;6.82;3.60;;;;;;;;;;5049847;28;20076;-74
2023/05/30 09:57:44;;;;;;;7.88;3.65;;;;;;;;;;5050222;28;20044;-71
2023/05/30 10:00:13;;;;;;;6.57;3.28;;;;;;;;;;5051310;28;20534;-72
2023/05/30 10:02:41;;;;;;;8.48;3.90;;;;;;;;;;5051903;28;20021;-72
2023/05/30 10:05:18;;;;;;;10.07;4.30;;;;;;;;;;5049564;28;20052;-72
2023/05/30 10:07:44;;;;;;;6.78;4.10;;;;;;;;;;5051392;28;20033;-72
2023/05/30 10:10:13;;;;;;;6.40;3.70;;;;;;;;;;5051467;28;20414;-73
2023/05/30 10:12:41;;;;;;;4.90;3.35;;;;;;;;;;5050623;28;20113;-72
2023/05/30 10:15:07;;;;;;;7.78;3.63;;;;;;;;;;5012090;28;20037;-71
2023/05/30 10:17:36;;;;;;;7.30;3.67;;;;;;;;;;5030610;28;20025;-71
2023/05/30 10:20:09;;;;;;;12.50;3.53;;;;;;;;;;5029739;28;20025;-73
2023/05/30 10:22:47;;;;;;;9.52;3.70;;;;;;;;;;5040971;28;20085;-74
2023/05/30 10:25:15;;;;;;;6.68;4.03;;;;;;;;;;5049565;28;20064;-73
2023/05/30 10:27:56;;;;;;;5.70;3.55;;;;;;;;;;5051770;28;20020;-73
2023/05/30 10:30:32;;;;;;;6.15;3.47;;;;;;;;;;5047633;28;20047;-73
2023/05/30 10:33:08;;;;;;;6.88;3.38;;;;;;;;;;5042397;28;20041;-75
2023/05/30 10:35:35;;;;;;;6.07;3.25;;;;;;;;;;5042290;28;20127;-73
2023/05/30 10:38:04;;;;;;;8.30;3.17;;;;;;;;;;5041424;28;20499;-73
2023/05/30 10:40:38;;;;;;;7.60;3.58;;;;;;;;;;5039709;28;20519;-73
2023/05/30 10:43:13;;;;;;;8.98;4.25;;;;;;;;;;5037169;28;20251;-73
2023/05/30 10:45:46;;;;;;;7.43;4.53;;;;;;;;;;5040080;28;20317;-74
2023/05/30 10:48:15;;;;;;;;;;;;;;;;;;5040346;28;20044;-74
2023/05/30 10:50:46;;;;;;;7.53;4.68;;;;;;;;;;5043028;28;20371;-73
2023/05/30 10:53:16;;;;;;;7.25;4.95;;;;;;;;;;5042284;28;20395;-73
2023/05/30 10:55:46;;;;;;;6.60;4.13;;;;;;;;;;5042934;28;20051;-75
2023/05/30 10:58:35;;;;;;;5.45;3.35;;;;;;;;;;5038872;28;20128;-73
2023/05/30 11:01:26;;;;;;;6.20;3.38;;;;;;;;;;5041147;28;20056;-73
2023/05/30 11:04:01;;;;;;;6.88;3.40;;;;;;;;;;5041660;28;20041;-73
2023/05/30 11:06:33;;;;;;;5.22;2.83;;;;;;;;;;5039278;28;20040;-75
2023/05/30 11:09:15;;;;;;;7.63;3.58;;;;;;;;;;5042400;28;20040;-74
2023/05/30 11:11:43;;;;;;;7.55;3.38;;;;;;;;;;5041552;28;20029;-75
2023/05/30 11:14:11;;;;;;;10.07;3.58;;;;;;;;;;5043016;28;20044;-74
2023/05/30 11:17:12;;;;;;;7.85;3.05;;;;;;;;;;5038559;28;20132;-73
2023/05/30 11:19:45;;;;;;;4.38;2.63;;;;;;;;;;5041493;28;20037;-72
2023/05/30 11:22:24;;;;;;;4.07;2.65;;;;;;;;;;5042220;28;20045;-77
2023/05/30 11:25:25;;;;;;;6.00;2.70;;;;;;;;;;5042155;28;20044;-72
2023/05/30 11:28:06;;;;;;;5.55;3.17;;;;;;;;;;5033679;28;20044;-74
2023/05/30 11:30:37;;;;;;;4.25;2.65;;;;;;;;;;5043017;28;20096;-75
2023/05/30 11:33:13;;;;;;;5.50;2.80;;;;;;;;;;5026192;28;20041;-75
2023/05/30 11:35:42;;;;;;;5.28;2.55;;;;;;;;;;5025825;28;20037;-74
2023/05/30 11:38:09;;;;;;;3.83;2.22;;;;;;;;;;5043468;28;20098;-73
2023/05/30 11:40:41;;;;;;;4.57;2.47;;;;;;;;;;5043103;28;20024;-72
2023/05/30 11:43:07;;;;;;;;;;;;;;;;;;5043163;28;20036;-72
2023/05/30 11:45:33;;;;;;;5.47;2.53;;;;;;;;;;5042134;28;19909;-72
2023/05/30 11:48:10;;;;;;;4.20;2.80;;;;;;;;;;5042126;28;20060;-74
2023/05/30 11:50:39;;;;;;;5.20;2.60;;;;;;;;;;5043099;28;20044;-73
2023/05/30 11:53:13;;;;;;;4.90;2.47;;;;;;;;;;5046062;28;20040;-75
2023/05/30 11:55:43;;;;;;;3.97;2.40;;;;;;;;;;5047145;28;20447;-74
2023/05/30 11:58:08;;;;;;;6.03;2.40;;;;;;;;;;5047793;28;20037;-73
2023/05/30 12:00:34;;;;;;;4.97;2.33;;;;;;;;;;5046284;28;20828;-75
2023/05/30 12:03:04;;;;;;;6.97;2.90;;;;;;;;;;5044082;28;20041;-74
2023/05/30 12:05:30;;;;;;;4.68;2.35;;;;;;;;;;5045875;28;20029;-75
2023/05/30 12:08:03;;;;;;;4.18;2.30;;;;;;;;;;5043779;28;20033;-75
2023/05/30 12:10:31;;;;;;;4.68;2.28;;;;;;;;;;5028519;28;20240;-75
2023/05/30 12:12:56;;;;;;;3.63;2.13;;;;;;;;;;5046124;28;20033;-75
2023/05/30 12:15:23;;;;;;;5.97;2.53;;;;;;;;;;5045587;28;20391;-74
2023/05/30 12:17:50;;;;;;;7.72;3.47;;;;;;;;;;5044491;28;20032;-76
2023/05/30 12:20:17;;;;;;;9.52;3.33;;;;;;;;;;5044986;28;20107;-75
2023/05/30 12:22:45;;;;;;;5.30;3.10;;;;;;;;;;5045633;28;20021;-75
2023/05/30 12:25:12;;;;;;;9.15;3.25;;;;;;;;;;5044455;28;20048;-75
2023/05/30 12:27:48;;;;;;;8.25;2.95;;;;;;;;;;5046176;28;20037;-74
2023/05/30 12:30:18;;;;;;;4.85;2.90;;;;;;;;;;5043219;28;20388;-76
2023/05/30 12:32:47;;;;;;;7.40;3.10;;;;;;;;;;5044394;28;20098;-76
2023/05/30 12:35:14;;;;;;;4.43;3.05;;;;;;;;;;5044776;28;20045;-75
2023/05/30 12:37:40;;;;;;;6.35;3.03;;;;;;;;;;5044896;28;20481;-76
2023/05/30 12:40:07;;;;;;;5.38;3.00;;;;;;;;;;5045650;28;20045;-76
2023/05/30 12:42:36;;;;;;;6.88;2.95;;;;;;;;;;5044610;28;20032;-76
2023/05/30 12:45:06;;;;;;;5.55;2.78;;;;;;;;;;5045521;28;20130;-75
2023/05/30 12:47:33;;;;;;;7.93;2.97;;;;;;;;;;5045070;28;20035;-75
2023/05/30 12:50:00;;;;;;;6.90;3.17;;;;;;;;;;5043241;28;20135;-75
2023/05/30 12:52:27;;;;;;;4.40;2.50;;;;;;;;;;5045560;28;20113;-75
2023/05/30 12:54:53;;;;;;;5.40;2.67;;;;;;;;;;5046809;28;20090;-75
2023/05/30 12:57:24;;;;;;;5.80;2.58;;;;;;;;;;5043439;28;20150;-76
2023/05/30 12:59:55;;;;;;;5.95;3.47;;;;;;;;;;5044252;28;20041;-77
2023/05/30 13:02:26;;;;;;;8.02;4.00;;;;;;;;;;5043915;28;20060;-75
2023/05/30 13:04:53;;;;;;;9.38;3.05;;;;;;;;;;5046908;28;20057;-76
2023/05/30 13:07:20;;;;;;;6.15;2.78;;;;;;;;;;5043249;28;20056;-75
2023/05/30 13:09:46;;;;;;;4.45;2.65;;;;;;;;;;5044446;28;20061;-76
2023/05/30 13:12:13;;;;;;;4.97;2.85;;;;;;;;;;5044617;28;20035;-76
2023/05/30 13:14:41;;;;;;;7.95;4.57;;;;;;;;;;5011025;28;20506;-75
2023/05/30 13:17:08;;;;;;;8.27;6.07;;;;;;;;;;5045978;28;20033;-76
2023/05/30 13:19:34;;;;;;;6.18;3.80;;;;;;;;;;5044067;28;20101;-77
2023/05/30 13:22:05;;;;;;;7.82;3.38;;;;;;;;;;5046091;28;20112;-76
2023/05/30 13:24:32;;;;;;;7.72;4.07;;;;;;;;;;5045258;28;20041;-75
2023/05/30 13:27:00;;;;;;;6.93;3.30;;;;;;;;;;5045617;28;20024;-78
2023/05/30 13:29:29;;;;;;;4.40;2.60;;;;;;;;;;5045437;28;20045;-73
2023/05/30 13:31:55;;;;;;;5.43;3.28;;;;;;;;;;5044749;28;20040;-74
2023/05/30 13:34:22;;;;;;;3.97;2.95;;;;;;;;;;5042858;28;20090;-74
2023/05/30 13:36:48;;;;;;;7.03;3.15;;;;;;;;;;5043143;28;20047;-75
2023/05/30 13:39:14;;;;;;;4.72;2.80;;;;;;;;;;5046015;28;20044;-76
2023/05/30 13:41:40;;;;;;;4.57;2.60;;;;;;;;;;5043285;28;20025;-75
2023/05/30 13:44:06;;;;;;;3.92;2.70;;;;;;;;;;5044106;28;20098;-74
2023/05/30 13:46:32;;;;;;;6.68;3.03;;;;;;;;;;5042238;28;20394;-75
2023/05/30 13:49:00;;;;;;;6.65;3.08;;;;;;;;;;5040853;28;20032;-76
2023/05/30 13:51:25;;;;;;;7.50;3.25;;;;;;;;;;5041476;28;20041;-75
2023/05/30 13:53:51;;;;;;;4.72;3.47;;;;;;;;;;5044091;28;20043;-76
2023/05/30 13:56:17;;;;;;;8.15;3.10;;;;;;;;;;5041532;28;20082;-75
2023/05/30 13:58:43;;;;;;;5.50;3.30;;;;;;;;;;5043510;28;20040;-75
2023/05/30 14:01:09;;;;;;;8.25;3.15;;;;;;;;;;5042927;28;20078;-73
2023/05/30 14:03:35;;;;;;;7.13;4.50;;;;;;;;;;5043223;28;20036;-75
2023/05/30 14:06:01;;;;;;;6.22;3.22;;;;;;;;;;5044607;28;20360;-75
2023/05/30 14:08:28;;;;;;;4.68;2.90;;;;;;;;;;5042681;28;20099;-75
2023/05/30 14:10:55;;;;;;;4.78;2.75;;;;;;;;;;5068886;28;20071;-73
2023/05/30 14:13:23;;;;;;;5.15;2.90;;;;;;;;;;5044668;28;20037;-73
2023/05/30 14:15:48;;;;;;;5.57;2.88;;;;;;;;;;5044608;28;20029;-74
2023/05/30 14:18:14;;;;;;;4.15;2.80;;;;;;;;;;5046523;28;20041;-75
2023/05/30 14:20:40;;;;;;;5.38;3.40;;;;;;;;;;5044365;28;20060;-75
2023/05/30 14:23:07;;;;;;;5.43;2.97;;;;;;;;;;5048786;28;20604;-75
2023/05/30 14:25:33;;;;;;;6.95;2.85;;;;;;;;;;5045274;28;20068;-76
2023/05/30 14:27:59;;;;;;;7.53;3.40;;;;;;;;;;5042835;28;20511;-74
2023/05/30 14:30:24;;;;;;;5.07;3.10;;;;;;;;;;5042945;28;20130;-74
2023/05/30 14:32:50;;;;;;;6.18;3.45;;;;;;;;;;5042817;28;20757;-74
2023/05/30 14:35:17;;;;;;;6.18;3.17;;;;;;;;;;5042693;28;20112;-75
2023/05/30 14:37:45;;;;;;;6.43;2.92;;;;;;;;;;5044907;28;20037;-73
2023/05/30 14:40:12;;;;;;;3.58;2.58;;;;;;;;;;5042403;28;20065;-74
2023/05/30 14:42:37;;;;;;;6.72;3.03;;;;;;;;;;5042679;28;20021;-73
2023/05/30 14:45:05;;;;;;;5.10;3.05;;;;;;;;;;5044294;28;20085;-74